Time;durP1;ratioP1;P1;durP2;ratioP2;P2;SDS_P1;SDS_P2;PMS_P1;PMS_P2;Temp;Humidity;BMP_temperature;BMP_pressure;BME280_temperature;BME280_humidity;BME280_pressure;Samples;Min_cycle;Max_cycle;Signal;HPM_P1;HPM_P2
2022/01/28 00:01:04;;;;;;;15.98;14.38;;;;;;;;;;5037453;28;20037;-70
2022/01/28 00:03:32;;;;;;;14.57;13.18;;;;;;;;;;5031394;28;20025;-71
2022/01/28 00:05:58;;;;;;;16.05;14.48;;;;;;;;;;5033108;28;20029;-72
2022/01/28 00:08:23;;;;;;;17.65;15.63;;;;;;;;;;5039445;28;20033;-71
2022/01/28 00:10:51;;;;;;;17.38;15.57;;;;;;;;;;5036901;28;20033;-70
2022/01/28 00:39:30;;;;;;;15.45;13.98;;;;;;;;;;5016126;28;20041;-71
2022/01/28 00:41:55;;;;;;;16.45;14.85;;;;;;;;;;5035734;28;20045;-68
2022/01/28 00:44:21;;;;;;;16.20;14.50;;;;;;;;;;5031880;28;20040;-72
2022/01/28 00:46:46;;;;;;;16.35;14.75;;;;;;;;;;5015359;28;20037;-70
2022/01/28 00:49:12;;;;;;;15.63;14.13;;;;;;;;;;5028278;28;20540;-71
2022/01/28 00:51:38;;;;;;;15.65;14.05;;;;;;;;;;5028894;28;20116;-70
2022/01/28 00:54:04;;;;;;;14.88;13.52;;;;;;;;;;5026370;28;20455;-71
2022/01/28 00:56:29;;;;;;;15.18;13.77;;;;;;;;;;5029849;28;20087;-70
2022/01/28 00:58:55;;;;;;;15.23;13.73;;;;;;;;;;5019760;28;20037;-71
2022/01/28 01:01:21;;;;;;;14.90;13.15;;;;;;;;;;5034897;28;20041;-70
2022/01/28 01:03:47;;;;;;;13.20;12.00;;;;;;;;;;5037330;28;20082;-71
2022/01/28 01:06:12;;;;;;;15.07;13.57;;;;;;;;;;5029121;28;20502;-71
2022/01/28 01:08:38;;;;;;;15.88;14.27;;;;;;;;;;5030505;28;20041;-71
2022/01/28 01:11:05;;;;;;;14.13;12.93;;;;;;;;;;5039284;28;20044;-70
2022/01/28 01:13:35;;;;;;;15.82;14.32;;;;;;;;;;5025381;28;20037;-71
2022/01/28 01:16:02;;;;;;;15.02;13.73;;;;;;;;;;5036646;28;20502;-71
2022/01/28 01:18:36;;;;;;;12.77;11.60;;;;;;;;;;5036884;28;20048;-71
2022/01/28 01:21:13;;;;;;;13.98;12.65;;;;;;;;;;5025049;28;20287;-71
2022/01/28 01:23:47;;;;;;;13.93;12.73;;;;;;;;;;5029527;28;20188;-71
2022/01/28 01:26:14;;;;;;;13.02;11.93;;;;;;;;;;5039367;28;20048;-71
2022/01/28 01:28:41;;;;;;;13.77;12.60;;;;;;;;;;5026879;28;20120;-70
2022/01/28 01:31:14;;;;;;;14.82;13.52;;;;;;;;;;5032856;28;20028;-70
2022/01/28 01:36:35;;;;;;;14.40;13.00;;;;;;;;;;4963240;28;20067;-69
2022/01/28 01:39:02;;;;;;;14.90;13.60;;;;;;;;;;4959328;28;20572;-70
2022/01/28 01:41:36;;;;;;;14.95;13.48;;;;;;;;;;4965457;28;20182;-71
2022/01/28 01:44:09;;;;;;;15.98;14.43;;;;;;;;;;4965903;28;20401;-72
2022/01/28 01:52:05;;;;;;;14.38;13.07;;;;;;;;;;4966968;28;20039;-71
2022/01/28 01:54:36;;;;;;;16.98;13.63;;;;;;;;;;4958644;28;20155;-71
2022/01/28 01:57:02;;;;;;;14.82;13.38;;;;;;;;;;4960387;28;20122;-71
2022/01/28 01:59:28;;;;;;;13.82;12.48;;;;;;;;;;4966786;28;20069;-71
2022/01/28 02:01:54;;;;;;;16.45;13.68;;;;;;;;;;4966760;28;20070;-69
2022/01/28 02:04:19;;;;;;;15.40;13.85;;;;;;;;;;4963172;28;20413;-71
2022/01/28 02:06:46;;;;;;;15.18;13.57;;;;;;;;;;4964228;28;20046;-71
2022/01/28 02:09:11;;;;;;;15.13;13.82;;;;;;;;;;4966463;28;20417;-71
2022/01/28 02:11:40;;;;;;;15.15;13.65;;;;;;;;;;4964628;28;20042;-71
2022/01/28 02:14:06;;;;;;;13.73;12.60;;;;;;;;;;5028624;28;20086;-71
2022/01/28 02:16:31;;;;;;;14.77;13.35;;;;;;;;;;5032537;28;20323;-71
2022/01/28 02:18:57;;;;;;;15.25;13.65;;;;;;;;;;5026399;28;20034;-71
2022/01/28 02:21:23;;;;;;;15.13;13.82;;;;;;;;;;5030123;28;20550;-70
2022/01/28 02:23:54;;;;;;;15.30;13.95;;;;;;;;;;5027633;28;20558;-69
2022/01/28 02:26:20;;;;;;;14.43;13.13;;;;;;;;;;5038570;28;20040;-70
2022/01/28 02:28:50;;;;;;;15.23;13.82;;;;;;;;;;5030462;28;20063;-70
2022/01/28 02:31:20;;;;;;;14.07;12.77;;;;;;;;;;5028435;28;20037;-70
2022/01/28 02:33:47;;;;;;;14.45;13.15;;;;;;;;;;5037332;28;20543;-70
2022/01/28 02:36:13;;;;;;;14.90;12.93;;;;;;;;;;5036237;28;20114;-70
2022/01/28 02:38:38;;;;;;;13.77;12.57;;;;;;;;;;5026638;28;20033;-70
2022/01/28 02:41:06;;;;;;;12.80;11.57;;;;;;;;;;5030396;28;20065;-69
2022/01/28 02:46:10;;;;;;;14.52;13.07;;;;;;;;;;5030798;28;20037;-71
2022/01/28 02:48:39;;;;;;;13.35;12.00;;;;;;;;;;5026886;28;20060;-71
2022/01/28 02:51:12;;;;;;;14.60;13.10;;;;;;;;;;5039202;28;20490;-71
2022/01/28 02:53:49;;;;;;;15.13;13.60;;;;;;;;;;5029509;28;20042;-70
2022/01/28 02:58:42;;;;;;;13.60;12.38;;;;;;;;;;5039646;28;20048;-70
2022/01/28 03:01:08;;;;;;;14.57;12.77;;;;;;;;;;5043332;28;20068;-70
2022/01/28 03:03:34;;;;;;;14.65;13.32;;;;;;;;;;5030628;28;20044;-70
2022/01/28 03:06:00;;;;;;;13.70;12.60;;;;;;;;;;5030630;28;20116;-71
2022/01/28 03:08:29;;;;;;;13.70;12.52;;;;;;;;;;5041612;28;20552;-71
2022/01/28 03:19:42;;;;;;;14.82;13.32;;;;;;;;;;5030663;28;20494;-70
2022/01/28 03:26:20;;;;;;;14.65;13.23;;;;;;;;;;5017942;28;20092;-69
2022/01/28 03:28:45;;;;;;;14.98;13.55;;;;;;;;;;5029593;28;20033;-70
2022/01/28 03:31:11;;;;;;;13.82;12.57;;;;;;;;;;5030248;28;20057;-70
2022/01/28 03:33:36;;;;;;;14.48;13.07;;;;;;;;;;5035475;28;20035;-70
2022/01/28 03:36:07;;;;;;;13.95;12.75;;;;;;;;;;5031498;28;20051;-69
2022/01/28 03:38:32;;;;;;;13.65;12.43;;;;;;;;;;5036213;28;20057;-69
2022/01/28 03:40:58;;;;;;;13.50;12.30;;;;;;;;;;5032865;28;20107;-70
2022/01/28 03:43:23;;;;;;;13.38;12.20;;;;;;;;;;5033672;28;20411;-70
2022/01/28 03:45:49;;;;;;;14.32;13.02;;;;;;;;;;5037784;28;20044;-70
2022/01/28 03:48:15;;;;;;;13.98;12.68;;;;;;;;;;5038493;28;20029;-70
2022/01/28 03:50:41;;;;;;;14.18;12.70;;;;;;;;;;5031207;28;20028;-70
2022/01/28 03:53:08;;;;;;;13.85;12.55;;;;;;;;;;5028853;28;20033;-69
2022/01/28 03:55:34;;;;;;;14.00;12.60;;;;;;;;;;5028413;28;20029;-70
2022/01/28 03:58:00;;;;;;;12.88;11.68;;;;;;;;;;5029106;28;20189;-70
2022/01/28 04:00:29;;;;;;;14.48;13.15;;;;;;;;;;5024995;28;20404;-69
2022/01/28 04:13:56;;;;;;;13.57;12.35;;;;;;;;;;5032135;28;19912;-69
2022/01/28 04:18:48;;;;;;;14.20;12.73;;;;;;;;;;5038612;28;20087;-69
2022/01/28 04:21:15;;;;;;;14.30;12.82;;;;;;;;;;5031280;28;20465;-69
2022/01/28 04:23:41;;;;;;;14.70;13.25;;;;;;;;;;5029326;28;20126;-69
2022/01/28 04:26:07;;;;;;;13.55;12.23;;;;;;;;;;5042212;28;20068;-69
2022/01/28 04:28:33;;;;;;;14.05;12.38;;;;;;;;;;5026182;28;20033;-69
2022/01/28 04:30:58;;;;;;;13.18;12.02;;;;;;;;;;5028673;28;20116;-69
2022/01/28 04:33:24;;;;;;;12.60;11.35;;;;;;;;;;5029535;28;20045;-69
2022/01/28 04:35:53;;;;;;;14.07;12.77;;;;;;;;;;5036653;28;20044;-68
2022/01/28 04:38:32;;;;;;;13.13;12.02;;;;;;;;;;5029011;28;20306;-69
2022/01/28 04:43:33;;;;;;;14.40;12.67;;;;;;;;;;5039605;28;20041;-69
2022/01/28 04:51:13;;;;;;;12.07;11.00;;;;;;;;;;5038850;28;20120;-69
2022/01/28 04:53:57;;;;;;;13.50;12.30;;;;;;;;;;5025969;28;20033;-68
2022/01/28 04:56:35;;;;;;;13.50;12.30;;;;;;;;;;5017978;28;20091;-69
2022/01/28 05:07:42;;;;;;;14.38;12.88;;;;;;;;;;5027432;28;20037;-67
2022/01/28 05:26:23;;;;;;;12.57;11.48;;;;;;;;;;5016493;28;20105;-70
2022/01/28 05:28:48;;;;;;;12.15;10.95;;;;;;;;;;5022425;28;20120;-69
2022/01/28 05:31:15;;;;;;;17.35;12.88;;;;;;;;;;5030209;28;20068;-69
2022/01/28 05:33:40;;;;;;;14.73;12.80;;;;;;;;;;5026185;28;20523;-70
2022/01/28 05:36:06;;;;;;;14.20;11.90;;;;;;;;;;5027749;28;20069;-69
2022/01/28 05:38:31;;;;;;;14.73;12.90;;;;;;;;;;5036046;28;20067;-69
2022/01/28 05:40:57;;;;;;;15.77;13.50;;;;;;;;;;5047578;28;20488;-70
2022/01/28 05:43:23;;;;;;;15.48;13.25;;;;;;;;;;5031174;28;20124;-68
2022/01/28 05:45:48;;;;;;;16.40;14.73;;;;;;;;;;5037348;28;20065;-68
2022/01/28 05:48:16;;;;;;;13.75;12.18;;;;;;;;;;5048799;28;20041;-69
2022/01/28 05:50:41;;;;;;;14.32;11.80;;;;;;;;;;5043550;28;20501;-69
2022/01/28 05:53:07;;;;;;;16.90;12.60;;;;;;;;;;5027277;28;20033;-70
2022/01/28 05:55:34;;;;;;;15.18;13.05;;;;;;;;;;5042459;28;20083;-69
2022/01/28 05:58:00;;;;;;;14.50;12.18;;;;;;;;;;5048895;28;20044;-70
2022/01/28 06:00:26;;;;;;;17.23;13.63;;;;;;;;;;5039362;28;20045;-69
2022/01/28 06:02:52;;;;;;;12.77;11.52;;;;;;;;;;5028961;28;20037;-70
2022/01/28 06:05:18;;;;;;;15.48;12.70;;;;;;;;;;5048023;28;20044;-69
2022/01/28 06:07:43;;;;;;;19.50;12.30;;;;;;;;;;5048433;28;20039;-69
2022/01/28 06:10:10;;;;;;;14.18;12.65;;;;;;;;;;5023174;28;20380;-69
2022/01/28 06:12:44;;;;;;;14.88;13.30;;;;;;;;;;5028562;28;20064;-69
2022/01/28 06:15:11;;;;;;;15.55;13.18;;;;;;;;;;5022599;28;20466;-69
2022/01/28 06:17:37;;;;;;;15.07;13.27;;;;;;;;;;5022455;28;20117;-69
2022/01/28 06:20:06;;;;;;;19.73;13.15;;;;;;;;;;5028633;28;20038;-68
2022/01/28 06:22:31;;;;;;;15.13;12.57;;;;;;;;;;5028556;28;20038;-69
2022/01/28 06:24:57;;;;;;;15.93;14.10;;;;;;;;;;5042106;28;20041;-68
2022/01/28 06:27:23;;;;;;;13.30;12.00;;;;;;;;;;5036848;28;20065;-69
2022/01/28 06:29:50;;;;;;;16.63;13.25;;;;;;;;;;5032544;28;20044;-69
2022/01/28 06:32:16;;;;;;;15.40;13.25;;;;;;;;;;5031827;28;20046;-69
2022/01/28 06:34:43;;;;;;;15.48;13.88;;;;;;;;;;5032274;28;20419;-69
2022/01/28 06:37:08;;;;;;;19.77;13.82;;;;;;;;;;5023724;28;20033;-68
2022/01/28 06:39:34;;;;;;;21.08;14.57;;;;;;;;;;5032748;28;20025;-69
2022/01/28 06:42:00;;;;;;;20.90;14.15;;;;;;;;;;5029750;28;20033;-69
2022/01/28 06:44:26;;;;;;;20.15;14.77;;;;;;;;;;5031464;28;20123;-69
2022/01/28 06:46:52;;;;;;;19.77;14.98;;;;;;;;;;5031102;28;20079;-69
2022/01/28 06:49:18;;;;;;;17.08;14.48;;;;;;;;;;5031251;28;20034;-69
2022/01/28 06:51:44;;;;;;;16.58;13.73;;;;;;;;;;5035326;28;20235;-68
2022/01/28 06:54:09;;;;;;;14.65;13.23;;;;;;;;;;5030481;28;20120;-69
2022/01/28 06:56:35;;;;;;;17.05;13.73;;;;;;;;;;5046492;28;20480;-69
2022/01/28 06:59:01;;;;;;;15.77;14.18;;;;;;;;;;5050607;28;20064;-70
2022/01/28 07:01:26;;;;;;;14.70;13.13;;;;;;;;;;5031098;28;20520;-68
2022/01/28 07:03:52;;;;;;;15.73;14.07;;;;;;;;;;5038633;28;20080;-69
2022/01/28 07:06:19;;;;;;;21.10;16.75;;;;;;;;;;5049925;28;20041;-69
2022/01/28 07:08:45;;;;;;;19.92;13.82;;;;;;;;;;5050272;28;20062;-69
2022/01/28 07:11:10;;;;;;;15.52;13.30;;;;;;;;;;5028295;28;20477;-69
2022/01/28 07:13:36;;;;;;;19.92;15.68;;;;;;;;;;5030263;28;20385;-69
2022/01/28 07:16:02;;;;;;;19.10;15.77;;;;;;;;;;5030994;28;20355;-69
2022/01/28 07:18:28;;;;;;;17.10;14.18;;;;;;;;;;5034950;28;20082;-69
2022/01/28 07:20:54;;;;;;;16.55;14.63;;;;;;;;;;5030705;28;20389;-69
2022/01/28 07:23:20;;;;;;;16.80;13.50;;;;;;;;;;5030919;28;20085;-70
2022/01/28 07:25:46;;;;;;;16.30;13.82;;;;;;;;;;5029812;28;20029;-69
2022/01/28 07:28:12;;;;;;;20.02;14.38;;;;;;;;;;5032619;28;20095;-69
2022/01/28 07:30:38;;;;;;;16.60;14.90;;;;;;;;;;5028946;28;20021;-69
2022/01/28 07:33:06;;;;;;;17.90;15.07;;;;;;;;;;5034201;28;20026;-69
2022/01/28 07:35:33;;;;;;;29.57;18.13;;;;;;;;;;5047263;28;20037;-70
2022/01/28 07:37:59;;;;;;;19.55;16.52;;;;;;;;;;5043202;28;20300;-71
2022/01/28 07:40:24;;;;;;;19.73;13.70;;;;;;;;;;5027787;28;20095;-69
2022/01/28 07:42:50;;;;;;;15.90;14.30;;;;;;;;;;5036313;28;20455;-69
2022/01/28 07:45:16;;;;;;;17.30;15.50;;;;;;;;;;5038310;28;20189;-69
2022/01/28 07:47:43;;;;;;;17.80;14.30;;;;;;;;;;5036303;28;20540;-69
2022/01/28 07:50:10;;;;;;;17.25;14.85;;;;;;;;;;5038800;28;20050;-70
2022/01/28 07:52:36;;;;;;;19.25;14.38;;;;;;;;;;5037904;28;20033;-70
2022/01/28 07:55:04;;;;;;;16.15;13.20;;;;;;;;;;5036666;28;20036;-69
2022/01/28 07:57:30;;;;;;;16.42;14.00;;;;;;;;;;5042831;28;20037;-70
2022/01/28 07:59:56;;;;;;;16.33;13.65;;;;;;;;;;5039410;28;20313;-70
2022/01/28 08:02:22;;;;;;;19.20;14.13;;;;;;;;;;5032739;28;20041;-70
2022/01/28 08:04:47;;;;;;;20.33;13.55;;;;;;;;;;5037042;28;20535;-70
2022/01/28 08:07:13;;;;;;;20.17;13.65;;;;;;;;;;5040572;28;20033;-69
2022/01/28 08:09:39;;;;;;;17.92;14.45;;;;;;;;;;5046914;28;20045;-70
2022/01/28 08:12:05;;;;;;;14.80;13.02;;;;;;;;;;5037913;28;20033;-70
2022/01/28 08:14:31;;;;;;;21.75;14.15;;;;;;;;;;5028929;28;20492;-70
2022/01/28 08:16:57;;;;;;;18.95;12.82;;;;;;;;;;5029593;28;20076;-69
2022/01/28 08:19:23;;;;;;;15.52;13.45;;;;;;;;;;5028253;28;20408;-70
2022/01/28 08:21:48;;;;;;;14.10;12.57;;;;;;;;;;5037294;28;20025;-70
2022/01/28 08:24:14;;;;;;;13.60;12.25;;;;;;;;;;5028617;28;20505;-70
2022/01/28 08:26:39;;;;;;;19.73;14.02;;;;;;;;;;5029268;28;20075;-70
2022/01/28 08:29:06;;;;;;;17.10;13.27;;;;;;;;;;5029247;28;20087;-70
2022/01/28 08:31:33;;;;;;;15.85;14.20;;;;;;;;;;5029382;28;20033;-71
2022/01/28 08:34:00;;;;;;;18.08;14.95;;;;;;;;;;5041284;28;20403;-70
2022/01/28 08:36:26;;;;;;;14.27;12.65;;;;;;;;;;5048173;28;20086;-70
2022/01/28 08:38:54;;;;;;;15.25;12.70;;;;;;;;;;5039708;28;20049;-70
2022/01/28 08:41:21;;;;;;;14.40;12.85;;;;;;;;;;5029591;28;20128;-70
2022/01/28 08:43:46;;;;;;;13.80;12.18;;;;;;;;;;5029020;28;20523;-70
2022/01/28 08:46:12;;;;;;;14.52;12.63;;;;;;;;;;5028890;28;20115;-70
2022/01/28 08:48:38;;;;;;;14.90;13.30;;;;;;;;;;5028772;28;20084;-70
2022/01/28 08:51:04;;;;;;;16.58;13.45;;;;;;;;;;5032065;28;20029;-70
2022/01/28 08:53:30;;;;;;;16.00;13.63;;;;;;;;;;5028508;28;20033;-70
2022/01/28 08:55:55;;;;;;;17.10;14.18;;;;;;;;;;5045213;28;20029;-70
2022/01/28 08:58:22;;;;;;;18.10;14.43;;;;;;;;;;5030651;28;20029;-70
2022/01/28 09:00:48;;;;;;;16.55;14.65;;;;;;;;;;5028499;28;20038;-69
2022/01/28 09:03:18;;;;;;;16.73;14.93;;;;;;;;;;5029505;28;20084;-70
2022/01/28 09:05:44;;;;;;;18.40;13.77;;;;;;;;;;5028601;28;20033;-69
2022/01/28 09:08:10;;;;;;;16.08;13.48;;;;;;;;;;5028444;28;20389;-70
2022/01/28 09:10:57;;;;;;;16.48;13.65;;;;;;;;;;5028300;28;20037;-70
2022/01/28 09:13:26;;;;;;;15.20;12.63;;;;;;;;;;5028719;28;20516;-70
2022/01/28 09:15:55;;;;;;;15.43;12.65;;;;;;;;;;5029299;28;20420;-70
2022/01/28 09:18:21;;;;;;;15.65;12.95;;;;;;;;;;5041915;28;20181;-69
2022/01/28 09:20:47;;;;;;;14.65;12.77;;;;;;;;;;5041591;28;20036;-70
2022/01/28 09:23:13;;;;;;;14.25;12.60;;;;;;;;;;5026129;28;20132;-70
2022/01/28 09:25:39;;;;;;;18.63;12.40;;;;;;;;;;5027965;28;20479;-70
2022/01/28 09:28:05;;;;;;;13.80;12.38;;;;;;;;;;5046065;28;20047;-70
2022/01/28 09:30:31;;;;;;;15.95;14.25;;;;;;;;;;5047532;28;20476;-70
2022/01/28 09:32:58;;;;;;;14.57;13.27;;;;;;;;;;5036473;28;20316;-70
2022/01/28 09:35:24;;;;;;;15.13;13.32;;;;;;;;;;5017858;28;20033;-70
2022/01/28 09:37:51;;;;;;;15.60;14.15;;;;;;;;;;5028480;28;20086;-71
2022/01/28 09:40:17;;;;;;;15.45;13.85;;;;;;;;;;5028225;28;20033;-70
2022/01/28 09:42:45;;;;;;;15.65;14.02;;;;;;;;;;5026236;28;20112;-69
2022/01/28 09:45:20;;;;;;;14.05;12.80;;;;;;;;;;5024942;28;20038;-70
2022/01/28 09:47:46;;;;;;;14.07;12.77;;;;;;;;;;5028425;28;20037;-69
2022/01/28 09:50:13;;;;;;;14.80;13.27;;;;;;;;;;5030485;28;20029;-70
2022/01/28 09:52:38;;;;;;;14.77;13.10;;;;;;;;;;5027257;28;20060;-70
2022/01/28 09:55:05;;;;;;;16.20;12.57;;;;;;;;;;5024284;28;20107;-70
2022/01/28 09:57:32;;;;;;;14.80;13.30;;;;;;;;;;5011466;28;20037;-70
2022/01/28 09:59:57;;;;;;;16.00;14.32;;;;;;;;;;5029326;28;20034;-71
2022/01/28 10:02:49;;;;;;;14.15;12.88;;;;;;;;;;5031627;28;20050;-70
2022/01/28 10:05:25;;;;;;;16.70;12.70;;;;;;;;;;5050789;28;20386;-70
2022/01/28 10:08:24;;;;;;;14.95;11.45;;;;;;;;;;5025419;28;20041;-71
2022/01/28 10:11:04;;;;;;;12.45;11.05;;;;;;;;;;4988389;28;20045;-70
2022/01/28 10:16:06;;;;;;;15.13;11.77;;;;;;;;;;4989484;28;20042;-69
2022/01/28 10:18:38;;;;;;;12.50;11.25;;;;;;;;;;4978555;28;20099;-70
2022/01/28 10:21:17;;;;;;;13.98;10.70;;;;;;;;;;4995802;28;20058;-69
2022/01/28 10:23:56;;;;;;;12.23;11.07;;;;;;;;;;4990817;28;20042;-70
2022/01/28 10:26:38;;;;;;;12.43;11.18;;;;;;;;;;4995293;28;20077;-70
2022/01/28 10:29:14;;;;;;;12.27;11.05;;;;;;;;;;4988821;28;20041;-70
2022/01/28 10:31:43;;;;;;;11.32;10.38;;;;;;;;;;4989027;28;20034;-68
2022/01/28 10:34:11;;;;;;;12.68;11.40;;;;;;;;;;4985431;28;20120;-69
2022/01/28 10:36:37;;;;;;;12.95;10.90;;;;;;;;;;4988653;28;20045;-69
2022/01/28 10:39:03;;;;;;;12.55;11.25;;;;;;;;;;4989502;28;20699;-69
2022/01/28 10:41:29;;;;;;;17.58;10.07;;;;;;;;;;4988437;28;20046;-69
2022/01/28 10:43:57;;;;;;;12.25;10.40;;;;;;;;;;4990969;28;20050;-69
2022/01/28 10:46:23;;;;;;;11.85;10.68;;;;;;;;;;5028483;28;20056;-70
2022/01/28 10:48:49;;;;;;;13.13;11.05;;;;;;;;;;5050525;28;20025;-70
2022/01/28 10:51:18;;;;;;;11.98;10.68;;;;;;;;;;5021391;28;20041;-70
2022/01/28 10:54:05;;;;;;;13.00;11.10;;;;;;;;;;5030762;28;20720;-70
2022/01/28 10:56:48;;;;;;;13.50;11.10;;;;;;;;;;5033817;28;20094;-70
2022/01/28 10:59:16;;;;;;;13.52;11.80;;;;;;;;;;5030107;28;20037;-70
2022/01/28 11:01:42;;;;;;;14.53;12.03;;;;;;;;;;5030893;28;20029;-71
2022/01/28 11:04:11;;;;;;;13.65;12.32;;;;;;;;;;5035325;28;20028;-70
2022/01/28 11:06:38;;;;;;;12.95;11.65;;;;;;;;;;5050941;28;20029;-71
2022/01/28 11:09:04;;;;;;;12.77;11.68;;;;;;;;;;5050334;28;20044;-71
2022/01/28 11:11:30;;;;;;;12.32;11.20;;;;;;;;;;5032397;28;20033;-70
2022/01/28 11:13:57;;;;;;;12.10;11.00;;;;;;;;;;5042522;28;20040;-70
2022/01/28 11:16:24;;;;;;;15.82;12.10;;;;;;;;;;5050367;28;20044;-70
2022/01/28 11:18:50;;;;;;;13.75;10.80;;;;;;;;;;5050343;28;20044;-70
2022/01/28 11:21:17;;;;;;;14.30;11.27;;;;;;;;;;5032388;28;20065;-69
2022/01/28 11:24:01;;;;;;;13.60;10.57;;;;;;;;;;5033723;28;20084;-71
2022/01/28 11:26:45;;;;;;;11.50;10.50;;;;;;;;;;5050060;28;20040;-70
2022/01/28 11:29:24;;;;;;;11.40;9.80;;;;;;;;;;5034565;28;20421;-71
2022/01/28 11:31:50;;;;;;;;;;;;;;;;;;5026735;28;20538;-70
2022/01/28 11:34:23;;;;;;;11.63;10.55;;;;;;;;;;5030427;28;19913;-70
2022/01/28 11:36:53;;;;;;;14.27;10.70;;;;;;;;;;5032514;28;20056;-70
2022/01/28 11:39:30;;;;;;;11.52;10.32;;;;;;;;;;5032639;28;20112;-70
2022/01/28 11:42:01;;;;;;;16.15;10.77;;;;;;;;;;5049823;28;20033;-70
2022/01/28 11:44:44;;;;;;;11.82;10.40;;;;;;;;;;5049750;28;20045;-70
2022/01/28 11:47:19;;;;;;;13.52;10.85;;;;;;;;;;5027994;28;20119;-70
2022/01/28 11:49:57;;;;;;;13.55;10.13;;;;;;;;;;5044008;28;20059;-70
2022/01/28 11:52:30;;;;;;;10.93;10.02;;;;;;;;;;5031624;28;20120;-70
2022/01/28 11:55:16;;;;;;;13.32;11.05;;;;;;;;;;5029130;28;20037;-70
2022/01/28 11:58:00;;;;;;;11.70;10.73;;;;;;;;;;5034881;28;20037;-69
2022/01/28 12:00:30;;;;;;;12.27;11.25;;;;;;;;;;5049332;28;20033;-70
2022/01/28 12:02:56;;;;;;;15.82;11.93;;;;;;;;;;5033508;28;20435;-70
2022/01/28 12:05:31;;;;;;;12.60;11.57;;;;;;;;;;5029739;28;20476;-70
2022/01/28 12:07:59;;;;;;;12.48;11.63;;;;;;;;;;5030191;28;20088;-70
2022/01/28 12:10:27;;;;;;;13.38;12.13;;;;;;;;;;5025176;28;20063;-71
2022/01/28 12:13:05;;;;;;;12.70;11.50;;;;;;;;;;5025128;28;20049;-70
2022/01/28 12:16:10;;;;;;;13.00;11.75;;;;;;;;;;5028688;28;20084;-70
2022/01/28 12:18:53;;;;;;;11.73;10.77;;;;;;;;;;5040654;28;20127;-71
2022/01/28 12:21:24;;;;;;;14.07;12.82;;;;;;;;;;5038344;28;20087;-70
2022/01/28 12:23:52;;;;;;;13.98;12.07;;;;;;;;;;5029750;28;20566;-71
2022/01/28 12:26:19;;;;;;;15.55;11.27;;;;;;;;;;5027868;28;20037;-70
2022/01/28 12:28:47;;;;;;;12.95;11.27;;;;;;;;;;5027142;28;20119;-70
2022/01/28 12:31:25;;;;;;;12.95;11.60;;;;;;;;;;5026089;28;20654;-70
2022/01/28 12:33:54;;;;;;;12.52;11.30;;;;;;;;;;5026931;28;20075;-69
2022/01/28 12:36:33;;;;;;;13.57;12.25;;;;;;;;;;5026992;28;20057;-70
2022/01/28 12:39:20;;;;;;;13.20;12.25;;;;;;;;;;5022359;28;20153;-69
2022/01/28 12:41:55;;;;;;;14.30;12.98;;;;;;;;;;5027636;28;20055;-69
2022/01/28 12:44:23;;;;;;;13.95;12.63;;;;;;;;;;5042217;28;20102;-71
2022/01/28 12:47:02;;;;;;;12.30;11.35;;;;;;;;;;5041081;28;20033;-70
2022/01/28 12:49:31;;;;;;;12.77;11.60;;;;;;;;;;5027673;28;20193;-70
2022/01/28 12:51:58;;;;;;;12.35;11.30;;;;;;;;;;5031232;28;20025;-70
2022/01/28 12:54:42;;;;;;;13.00;11.98;;;;;;;;;;5033084;28;20044;-70
2022/01/28 12:57:11;;;;;;;13.07;11.73;;;;;;;;;;5016371;28;20051;-71
2022/01/28 12:59:38;;;;;;;13.73;11.63;;;;;;;;;;5027434;28;20037;-70
2022/01/28 13:02:04;;;;;;;11.68;10.60;;;;;;;;;;5026785;28;20284;-71
2022/01/28 13:10:06;;;;;;;13.38;12.05;;;;;;;;;;5026943;28;20480;-70
2022/01/28 13:12:33;;;;;;;12.75;10.70;;;;;;;;;;5026476;28;20041;-70
2022/01/28 13:15:11;;;;;;;11.82;10.90;;;;;;;;;;5030571;28;20044;-69
2022/01/28 13:17:38;;;;;;;14.30;12.00;;;;;;;;;;5038180;28;20868;-70
2022/01/28 13:20:09;;;;;;;14.25;12.25;;;;;;;;;;5045356;28;20045;-69
2022/01/28 13:22:37;;;;;;;13.32;11.95;;;;;;;;;;5026892;28;20089;-70
2022/01/28 13:25:22;;;;;;;14.32;12.18;;;;;;;;;;5025664;28;20410;-70
2022/01/28 13:27:53;;;;;;;13.48;12.20;;;;;;;;;;5026340;28;20124;-69
2022/01/28 13:30:19;;;;;;;17.30;12.57;;;;;;;;;;5026033;28;20501;-69
2022/01/28 13:32:50;;;;;;;13.68;12.38;;;;;;;;;;5026257;28;20034;-70
2022/01/28 13:35:25;;;;;;;14.77;12.95;;;;;;;;;;5026094;28;20579;-70
2022/01/28 13:37:57;;;;;;;14.60;13.05;;;;;;;;;;5025857;28;20057;-71
2022/01/28 13:40:32;;;;;;;13.50;12.27;;;;;;;;;;5023075;28;20036;-69
2022/01/28 13:43:06;;;;;;;14.15;12.90;;;;;;;;;;5026904;28;20099;-70
2022/01/28 13:45:38;;;;;;;13.27;12.05;;;;;;;;;;5025749;28;20381;-70
2022/01/28 13:48:06;;;;;;;13.70;12.43;;;;;;;;;;5025371;28;20037;-71
2022/01/28 13:50:34;;;;;;;12.55;11.43;;;;;;;;;;5028149;28;20037;-70
2022/01/28 13:53:08;;;;;;;13.02;11.60;;;;;;;;;;5026305;28;20025;-69
2022/01/28 13:55:36;;;;;;;14.43;11.73;;;;;;;;;;5037355;28;20631;-70
2022/01/28 13:58:05;;;;;;;13.63;12.20;;;;;;;;;;5019836;28;20033;-69
2022/01/28 14:00:36;;;;;;;13.43;12.00;;;;;;;;;;5039325;28;20033;-69
2022/01/28 14:03:01;;;;;;;13.82;12.48;;;;;;;;;;5043656;28;20562;-69
2022/01/28 14:06:00;;;;;;;14.32;12.77;;;;;;;;;;5026340;28;20045;-69
2022/01/28 14:08:38;;;;;;;12.33;11.23;;;;;;;;;;5026696;28;20140;-69
2022/01/28 14:11:42;;;;;;;13.67;12.37;;;;;;;;;;5021333;28;20831;-70
2022/01/28 14:14:16;;;;;;;14.25;12.88;;;;;;;;;;4967913;28;20102;-69
2022/01/28 14:16:46;;;;;;;12.70;11.68;;;;;;;;;;4967335;28;20066;-69
2022/01/28 14:19:12;;;;;;;13.85;12.55;;;;;;;;;;4977986;22;20254;-79
2022/01/28 14:21:39;;;;;;;13.73;12.43;;;;;;;;;;5019929;28;20212;-79
2022/01/28 14:24:06;;;;;;;13.82;12.55;;;;;;;;;;5021938;28;20037;-78
2022/01/28 14:26:40;;;;;;;13.60;12.27;;;;;;;;;;5029488;28;20037;-80
2022/01/28 14:29:51;;;;;;;13.57;12.23;;;;;;;;;;5028716;28;20126;-79
2022/01/28 14:31:55;;;;;;;;;;;;;;;;;;5017904;28;20041;-79
2022/01/28 14:34:22;;;;;;;14.07;12.63;;;;;;;;;;5010681;28;19914;-78
2022/01/28 14:36:49;;;;;;;15.55;11.60;;;;;;;;;;5031028;28;20491;-78
2022/01/28 14:39:15;;;;;;;15.02;13.45;;;;;;;;;;5030643;28;20482;-79
2022/01/28 14:41:42;;;;;;;15.52;12.90;;;;;;;;;;5017944;28;20034;-78
2022/01/28 14:44:08;;;;;;;15.38;13.73;;;;;;;;;;5024852;28;20132;-78
2022/01/28 14:46:34;;;;;;;14.55;13.23;;;;;;;;;;5013221;28;20112;-77
2022/01/28 14:49:04;;;;;;;15.85;13.02;;;;;;;;;;5027532;28;20037;-78
2022/01/28 14:51:30;;;;;;;13.77;12.38;;;;;;;;;;5025155;28;20095;-79
2022/01/28 14:53:56;;;;;;;15.10;13.38;;;;;;;;;;5003477;28;20511;-78
2022/01/28 14:56:21;;;;;;;15.32;12.90;;;;;;;;;;5031873;28;20037;-77
2022/01/28 14:58:48;;;;;;;14.52;13.20;;;;;;;;;;5022750;28;20095;-78
2022/01/28 15:01:13;;;;;;;17.65;14.55;;;;;;;;;;5029382;28;20037;-79
2022/01/28 15:03:39;;;;;;;14.65;13.15;;;;;;;;;;5032218;28;20044;-79
2022/01/28 15:06:05;;;;;;;15.40;13.27;;;;;;;;;;5030362;28;20120;-78
2022/01/28 15:08:31;;;;;;;13.57;12.40;;;;;;;;;;5019726;28;20071;-79
2022/01/28 15:10:59;;;;;;;14.57;13.07;;;;;;;;;;5027656;28;20053;-78
2022/01/28 15:13:25;;;;;;;13.20;11.95;;;;;;;;;;5020948;28;20037;-79
2022/01/28 15:15:53;;;;;;;12.68;11.48;;;;;;;;;;5031030;28;20060;-79
2022/01/28 15:18:19;;;;;;;14.18;12.50;;;;;;;;;;5033883;28;20065;-79
2022/01/28 15:20:45;;;;;;;15.50;12.70;;;;;;;;;;5027897;28;20038;-79
2022/01/28 15:23:11;;;;;;;17.25;12.88;;;;;;;;;;5031464;28;20033;-79
2022/01/28 15:25:37;;;;;;;14.73;13.07;;;;;;;;;;5034116;28;20033;-79
2022/01/28 15:28:03;;;;;;;14.45;12.90;;;;;;;;;;5022875;28;20041;-78
2022/01/28 15:34:11;;;;;;;15.45;13.55;;;;;;;;;;5023420;28;20040;-79
2022/01/28 15:36:01;;;;;;;14.65;13.13;;;;;;;;;;5032425;28;20048;-79
2022/01/28 15:38:28;;;;;;;14.18;11.50;;;;;;;;;;5030812;28;20033;-79
2022/01/28 15:40:53;;;;;;;14.70;12.43;;;;;;;;;;5031300;28;20056;-78
2022/01/28 15:43:20;;;;;;;14.38;12.30;;;;;;;;;;5034469;28;20312;-79
2022/01/28 15:45:47;;;;;;;14.40;12.65;;;;;;;;;;5027634;28;20062;-79
2022/01/28 15:48:13;;;;;;;14.32;12.85;;;;;;;;;;5025023;28;20076;-79
2022/01/28 15:50:40;;;;;;;14.35;12.93;;;;;;;;;;5009667;28;20447;-79
2022/01/28 15:53:06;;;;;;;17.25;13.32;;;;;;;;;;5025649;28;20135;-79
2022/01/28 15:55:33;;;;;;;16.80;13.50;;;;;;;;;;5023468;28;20038;-79
2022/01/28 15:57:58;;;;;;;15.05;12.85;;;;;;;;;;5023255;28;20033;-80
2022/01/28 16:00:24;;;;;;;15.07;12.95;;;;;;;;;;5022882;28;20037;-79
2022/01/28 16:02:49;;;;;;;14.98;13.40;;;;;;;;;;5023443;28;20037;-79
2022/01/28 16:05:15;;;;;;;14.23;12.77;;;;;;;;;;5028592;28;20045;-79
2022/01/28 16:07:41;;;;;;;13.07;11.88;;;;;;;;;;5032778;28;20037;-79
2022/01/28 16:10:12;;;;;;;13.95;12.10;;;;;;;;;;5029423;28;20383;-78
2022/01/28 16:15:24;;;;;;;16.02;12.75;;;;;;;;;;5047611;28;20068;-80
2022/01/28 16:17:50;;;;;;;20.63;13.23;;;;;;;;;;5032612;28;20034;-80
2022/01/28 16:20:16;;;;;;;14.43;12.80;;;;;;;;;;5019050;28;20074;-79